Time;durP1;ratioP1;P1;durP2;ratioP2;P2;SDS_P1;SDS_P2;PMS_P1;PMS_P2;Temp;Humidity;BMP_temperature;BMP_pressure;BME280_temperature;BME280_humidity;BME280_pressure;Samples;Min_cycle;Max_cycle;Signal;HPM_P1;HPM_P2
2021/04/12 00:01:47;;;;;;;5.43;1.43;;;2.20;94.20;;;;;;5049356;28;20371;-79
2021/04/12 00:04:30;;;;;;;5.20;1.07;;;2.20;94.20;;;;;;5069688;28;20040;-79
2021/04/12 00:07:38;;;;;;;6.20;1.10;;;2.20;94.30;;;;;;5045024;28;20032;-79
2021/04/12 00:10:28;;;;;;;3.43;0.80;;;2.20;94.30;;;;;;5055787;28;20051;-79
2021/04/12 00:13:21;;;;;;;4.33;1.10;;;2.20;94.40;;;;;;5077328;28;20060;-79
2021/04/12 00:16:21;;;;;;;4.43;0.60;;;2.10;94.40;;;;;;5063750;28;20036;-79
2021/04/12 00:19:03;;;;;;;3.77;0.90;;;2.10;94.40;;;;;;5048616;28;20047;-79
2021/04/12 00:21:40;;;;;;;4.07;1.10;;;2.10;94.50;;;;;;5065953;28;20130;-78
2021/04/12 00:24:15;;;;;;;5.03;0.80;;;2.00;94.50;;;;;;5053794;28;20043;-79
2021/04/12 00:26:54;;;;;;;5.43;1.10;;;2.00;94.60;;;;;;5051969;28;20513;-79
2021/04/12 00:29:38;;;;;;;6.57;1.20;;;2.00;94.60;;;;;;5064674;28;20048;-79
2021/04/12 00:32:14;;;;;;;3.33;1.00;;;2.00;94.70;;;;;;5078590;28;20040;-79
2021/04/12 00:34:52;;;;;;;3.03;1.10;;;1.90;94.70;;;;;;5061412;28;20033;-79
2021/04/12 00:37:44;;;;;;;5.47;1.57;;;1.90;94.80;;;;;;5065373;28;20047;-79
2021/04/12 00:40:24;;;;;;;5.43;1.10;;;1.90;94.80;;;;;;5067238;28;20031;-79
2021/04/12 00:43:16;;;;;;;5.23;1.30;;;1.90;94.90;;;;;;5081720;28;20043;-78
2021/04/12 00:46:00;;;;;;;5.97;1.20;;;1.90;94.90;;;;;;5064524;28;20031;-79
2021/04/12 00:48:48;;;;;;;5.30;1.43;;;1.80;94.90;;;;;;5076087;28;20062;-79
2021/04/12 00:51:43;;;;;;;4.30;1.17;;;1.80;95.00;;;;;;5056456;28;20040;-79
2021/04/12 00:54:45;;;;;;;9.33;1.40;;;1.80;95.00;;;;;;5047394;28;20037;-79
2021/04/12 00:57:12;;;;;;;6.10;1.10;;;1.70;95.30;;;;;;5047614;28;20047;-79
2021/04/12 00:59:49;;;;;;;5.03;1.23;;;1.70;95.10;;;;;;5061180;28;20021;-79
2021/04/12 01:02:38;;;;;;;5.47;1.30;;;1.70;95.10;;;;;;5066075;28;20566;-79
2021/04/12 01:05:22;;;;;;;2.50;0.90;;;1.60;95.10;;;;;;5063606;28;20043;-79
2021/04/12 01:08:28;;;;;;;7.20;1.47;;;1.60;95.10;;;;;;5079453;28;20059;-79
2021/04/12 01:11:07;;;;;;;2.97;1.10;;;1.60;95.10;;;;;;5074194;28;20048;-79
2021/04/12 01:13:36;;;;;;;3.87;1.30;;;1.60;95.20;;;;;;5063547;28;20040;-79
2021/04/12 01:16:03;;;;;;;6.67;1.13;;;1.60;95.20;;;;;;5048919;28;20063;-79
2021/04/12 01:19:06;;;;;;;2.97;1.00;;;1.60;95.30;;;;;;5078829;28;20028;-79
2021/04/12 01:21:51;;;;;;;;;;;1.50;95.40;;;;;;5078133;28;20414;-79
2021/04/12 01:24:45;;;;;;;5.03;1.33;;;1.50;95.40;;;;;;5065020;28;19912;-79
2021/04/12 01:27:42;;;;;;;5.73;1.57;;;1.50;95.50;;;;;;5046614;28;20043;-79
2021/04/12 01:30:30;;;;;;;6.87;1.87;;;1.60;95.50;;;;;;5056170;28;20047;-79
2021/04/12 01:33:31;;;;;;;5.53;1.63;;;1.60;95.70;;;;;;5078162;28;20047;-80
2021/04/12 01:36:25;;;;;;;8.83;1.33;;;1.70;95.70;;;;;;5047089;28;20044;-79
2021/04/12 01:38:59;;;;;;;5.53;1.00;;;1.80;95.60;;;;;;5079566;28;20036;-80
2021/04/12 01:41:28;;;;;;;11.70;1.70;;;1.80;95.60;;;;;;5054149;28;20422;-80
2021/04/12 01:44:15;;;;;;;4.60;1.20;;;1.80;95.70;;;;;;5076778;28;20135;-80
2021/04/12 01:46:51;;;;;;;3.03;1.40;;;1.90;95.80;;;;;;5054306;28;20043;-80
2021/04/12 01:49:42;;;;;;;8.25;2.55;;;1.90;95.80;;;;;;5079951;28;20942;-80
2021/04/12 01:52:33;;;;;;;4.50;1.50;;;1.90;95.80;;;;;;5059981;28;20048;-80
2021/04/12 01:55:34;;;;;;;3.83;1.67;;;1.90;95.80;;;;;;5081896;28;20390;-79
2021/04/12 01:58:24;;;;;;;2.67;1.13;;;1.90;95.90;;;;;;5036944;28;20400;-79
2021/04/12 02:01:18;;;;;;;5.60;1.40;;;1.80;95.90;;;;;;5077269;28;20487;-80
2021/04/12 02:04:20;;;;;;;4.97;1.63;;;1.80;96.20;;;;;;5058674;28;20470;-80
2021/04/12 02:07:09;;;;;;;4.57;1.53;;;1.80;96.00;;;;;;5062006;28;20774;-79
2021/04/12 02:09:53;;;;;;;3.37;1.53;;;1.80;96.00;;;;;;5061810;28;20375;-79
2021/04/12 02:12:37;;;;;;;5.27;1.73;;;1.80;96.00;;;;;;5048693;28;20600;-79
2021/04/12 02:15:38;;;;;;;5.90;2.13;;;1.70;96.00;;;;;;5075183;28;20059;-80
2021/04/12 02:18:42;;;;;;;2.40;1.03;;;1.70;96.00;;;;;;5064062;28;20032;-80
2021/04/12 02:21:27;;;;;;;4.27;1.80;;;1.60;96.10;;;;;;4978361;28;20038;-81
2021/04/12 02:24:24;;;;;;;3.80;1.70;;;1.60;96.10;;;;;;5067881;28;20494;-79
2021/04/12 02:27:17;;;;;;;4.90;1.70;;;1.50;96.20;;;;;;5074813;28;20418;-80
2021/04/12 02:29:49;;;;;;;4.28;1.98;;;1.40;96.20;;;;;;5051176;28;20051;-80
2021/04/12 02:32:47;;;;;;;5.35;1.70;;;1.40;96.20;;;;;;5075903;28;20493;-79
2021/04/12 02:35:39;;;;;;;5.60;2.00;;;1.40;96.30;;;;;;5057252;28;20070;-79
2021/04/12 02:38:33;;;;;;;2.90;2.08;;;1.30;96.20;;;;;;5058784;28;20036;-80
2021/04/12 02:41:12;;;;;;;4.30;2.07;;;1.30;96.30;;;;;;5057702;28;20053;-80
2021/04/12 02:44:09;;;;;;;3.37;1.90;;;1.20;96.30;;;;;;5075396;28;20043;-79
2021/04/12 02:47:11;;;;;;;5.13;1.97;;;1.20;96.40;;;;;;5077107;28;20036;-80
2021/04/12 02:49:55;;;;;;;6.10;1.70;;;1.20;96.50;;;;;;5079479;28;20063;-80
2021/04/12 02:52:35;;;;;;;4.27;1.50;;;1.20;96.50;;;;;;5069388;28;20060;-79
2021/04/12 02:55:06;;;;;;;4.93;1.60;;;1.20;96.50;;;;;;5058525;28;20040;-80
2021/04/12 02:58:00;;;;;;;1.93;1.10;;;1.20;96.50;;;;;;5082340;28;20040;-80
2021/04/12 03:00:48;;;;;;;5.50;1.33;;;1.20;96.50;;;;;;5080001;28;20052;-79
2021/04/12 03:03:49;;;;;;;5.37;2.17;;;1.20;96.50;;;;;;5061085;28;20498;-80
2021/04/12 03:07:09;;;;;;;3.70;1.47;;;1.20;96.60;;;;;;5049907;28;20107;-80
2021/04/12 03:10:09;;;;;;;6.63;1.90;;;1.20;96.60;;;;;;4995240;28;20050;-79
2021/04/12 03:12:53;;;;;;;10.00;2.57;;;1.30;96.70;;;;;;4997387;28;20050;-79
2021/04/12 03:15:43;;;;;;;3.77;1.90;;;1.30;96.70;;;;;;5069167;28;20045;-79
2021/04/12 03:18:43;;;;;;;4.70;2.47;;;1.40;96.80;;;;;;5042831;28;20050;-80
2021/04/12 03:21:38;;;;;;;6.70;2.43;;;1.40;96.80;;;;;;5061878;28;20032;-79
2021/04/12 03:24:39;;;;;;;4.70;1.57;;;1.40;96.80;;;;;;5066126;28;20429;-79
2021/04/12 03:27:31;;;;;;;2.53;1.03;;;1.50;96.80;;;;;;5040776;28;20048;-79
2021/04/12 03:30:21;;;;;;;6.67;1.57;;;1.50;96.80;;;;;;5077995;28;20052;-79
2021/04/12 03:33:14;;;;;;;5.90;1.80;;;1.50;96.80;;;;;;5047517;28;20067;-79
2021/04/12 03:35:53;;;;;;;7.50;2.00;;;1.50;96.80;;;;;;5060727;28;20387;-79
2021/04/12 03:38:36;;;;;;;4.97;1.77;;;1.50;96.80;;;;;;5062908;28;20044;-79
2021/04/12 03:41:16;;;;;;;5.35;1.60;;;1.40;96.90;;;;;;5054515;28;20866;-79
2021/04/12 03:44:10;;;;;;;5.23;1.53;;;1.40;96.90;;;;;;5050449;28;20040;-79
2021/04/12 03:47:41;;;;;;;5.97;1.50;;;1.40;97.00;;;;;;5059149;28;20037;-79
2021/04/12 03:50:33;;;;;;;4.33;1.23;;;1.40;97.10;;;;;;4952431;28;20094;-79
2021/04/12 03:53:34;;;;;;;5.22;1.65;;;1.40;97.10;;;;;;5012692;28;20040;-79
2021/04/12 03:56:14;;;;;;;4.37;1.40;;;1.50;97.10;;;;;;5046900;28;20043;-79
2021/04/12 03:59:17;;;;;;;5.13;1.37;;;1.50;97.10;;;;;;5050969;28;20407;-80
2021/04/12 04:02:05;;;;;;;4.53;1.08;;;1.50;97.20;;;;;;5059164;28;20487;-79
2021/04/12 04:04:39;;;;;;;4.20;1.50;;;1.50;97.20;;;;;;5075709;28;20032;-79
2021/04/12 04:07:24;;;;;;;4.07;0.80;;;1.50;97.20;;;;;;5064011;28;20055;-79
2021/04/12 04:10:16;;;;;;;3.87;1.40;;;1.40;97.20;;;;;;5054122;28;20052;-80
2021/04/12 04:13:09;;;;;;;5.50;1.27;;;1.40;97.20;;;;;;5053759;28;20047;-80
2021/04/12 04:16:07;;;;;;;3.05;0.85;;;1.40;97.30;;;;;;5039898;28;20040;-79
2021/04/12 04:18:59;;;;;;;3.70;0.70;;;1.40;97.30;;;;;;5030670;28;20040;-79
2021/04/12 04:21:45;;;;;;;1.53;0.70;;;1.30;97.30;;;;;;5043413;28;20489;-80
2021/04/12 04:24:26;;;;;;;2.93;0.73;;;1.30;97.30;;;;;;5063428;28;20043;-79
2021/04/12 04:27:11;;;;;;;3.83;0.90;;;1.30;97.20;;;;;;5061697;28;20060;-80
2021/04/12 04:29:48;;;;;;;2.50;0.87;;;1.30;97.20;;;;;;5065006;28;20040;-79
2021/04/12 04:32:39;;;;;;;2.60;0.97;;;1.30;97.20;;;;;;5046434;28;20409;-79
2021/04/12 04:35:09;;;;;;;3.03;0.87;;;1.30;97.20;;;;;;5084557;28;20414;-79
2021/04/12 04:38:05;;;;;;;3.07;1.00;;;1.20;97.20;;;;;;5050821;28;20047;-80
2021/04/12 04:40:44;;;;;;;3.67;1.10;;;1.20;97.30;;;;;;5079957;28;20048;-81
2021/04/12 04:43:40;;;;;;;4.07;1.23;;;1.20;97.30;;;;;;5081171;28;20036;-85
2021/04/12 04:46:16;;;;;;;4.83;1.43;;;1.20;97.40;;;;;;5054494;28;20034;-82
2021/04/12 04:48:51;;;;;;;3.87;0.97;;;1.30;97.40;;;;;;5082820;28;20398;-85
2021/04/12 04:51:51;;;;;;;2.63;1.10;;;1.30;97.30;;;;;;5048707;28;20040;-82
2021/04/12 04:54:44;;;;;;;2.73;1.17;;;1.40;97.30;;;;;;5080083;28;20035;-82
2021/04/12 04:57:21;;;;;;;3.30;1.13;;;1.40;97.40;;;;;;5074815;28;20044;-82
2021/04/12 05:00:09;;;;;;;3.07;1.27;;;1.50;97.20;;;;;;5046352;28;20040;-82
2021/04/12 05:02:38;;;;;;;4.27;1.47;;;1.40;97.20;;;;;;5044871;28;20047;-82
2021/04/12 05:05:46;;;;;;;2.73;0.93;;;1.40;97.20;;;;;;5044106;28;20037;-82
2021/04/12 05:08:34;;;;;;;3.20;1.53;;;1.40;97.20;;;;;;5049017;28;20052;-82
2021/04/12 05:11:19;;;;;;;6.17;1.93;;;1.40;97.20;;;;;;5078040;28;20052;-82
2021/04/12 05:13:57;;;;;;;3.63;1.33;;;1.40;97.30;;;;;;5060967;28;20394;-82
2021/04/12 05:16:45;;;;;;;3.53;2.00;;;1.40;97.30;;;;;;5064038;28;20032;-82
2021/04/12 05:19:22;;;;;;;2.87;1.50;;;1.40;97.30;;;;;;5060470;28;20032;-83
2021/04/12 05:22:47;;;;;;;3.70;1.40;;;1.50;97.40;;;;;;5056323;28;20044;-81
2021/04/12 05:25:31;;;;;;;3.10;1.60;;;1.60;97.40;;;;;;4988448;28;20046;-81
2021/04/12 05:28:06;;;;;;;2.40;1.33;;;1.70;97.40;;;;;;4990792;28;20052;-79
2021/04/12 05:30:39;;;;;;;3.00;1.30;;;1.80;97.30;;;;;;5045132;28;20055;-79
2021/04/12 05:33:27;;;;;;;3.22;1.50;;;2.00;97.20;;;;;;5051025;28;20055;-79
2021/04/12 05:36:15;;;;;;;6.20;2.20;;;2.10;97.10;;;;;;5050834;28;20031;-78
2021/04/12 05:39:26;;;;;;;3.10;1.50;;;2.20;97.00;;;;;;5076291;28;20048;-79
2021/04/12 05:42:08;;;;;;;5.03;1.60;;;2.20;97.00;;;;;;4999759;28;20060;-79
2021/04/12 05:44:53;;;;;;;6.70;1.80;;;2.30;97.00;;;;;;4997587;28;20432;-79
2021/04/12 05:47:45;;;;;;;5.80;1.80;;;2.30;97.00;;;;;;5035041;28;20510;-79
2021/04/12 05:50:44;;;;;;;4.80;1.13;;;2.40;97.00;;;;;;5078845;28;20044;-79
2021/04/12 05:53:51;;;;;;;4.00;1.13;;;2.50;97.00;;;;;;5059777;28;20044;-82
2021/04/12 05:56:31;;;;;;;6.87;1.77;;;2.70;97.00;;;;;;5082794;28;20058;-79
2021/04/12 05:59:22;;;;;;;2.30;1.30;;;2.80;96.90;;;;;;5056989;28;20047;-78
2021/04/12 06:02:13;;;;;;;3.60;2.03;;;2.90;96.90;;;;;;5052132;28;20047;-79
2021/04/12 06:05:18;;;;;;;4.40;1.80;;;3.00;96.90;;;;;;5060760;28;20040;-78
2021/04/12 06:08:03;;;;;;;7.30;1.63;;;3.30;96.80;;;;;;5063286;28;20048;-79
2021/04/12 06:10:49;;;;;;;4.97;1.47;;;3.50;96.70;;;;;;5080329;28;20056;-79
2021/04/12 06:13:57;;;;;;;3.83;1.30;;;3.70;96.60;;;;;;5041992;28;20383;-79
2021/04/12 06:17:11;;;;;;;4.67;1.50;;;3.90;96.40;;;;;;5077226;28;20055;-79
2021/04/12 06:20:29;;;;;;;4.37;2.10;;;4.20;96.20;;;;;;4979979;28;20049;-78
2021/04/12 06:23:38;;;;;;;3.57;1.67;;;4.50;96.00;;;;;;5020602;28;20051;-79
2021/04/12 06:26:24;;;;;;;3.03;1.47;;;4.70;95.80;;;;;;5080827;28;20035;-80
2021/04/12 06:29:12;;;;;;;6.73;1.23;;;4.90;95.50;;;;;;5077181;28;20359;-78
2021/04/12 06:32:00;;;;;;;2.93;1.03;;;5.10;95.40;;;;;;5078686;28;20055;-79
2021/04/12 06:34:52;;;;;;;3.17;0.90;;;5.30;95.20;;;;;;5062403;28;20040;-82
2021/04/12 06:37:28;;;;;;;3.85;0.80;;;5.50;95.10;;;;;;5052201;28;20043;-82
2021/04/12 06:40:24;;;;;;;2.23;0.90;;;5.70;94.90;;;;;;5058180;28;20036;-78
2021/04/12 06:43:33;;;;;;;3.58;1.25;;;5.90;94.80;;;;;;5040344;28;20028;-80
2021/04/12 06:46:23;;;;;;;6.83;1.20;;;6.20;94.60;;;;;;5080162;28;20059;-80
2021/04/12 06:49:09;;;;;;;5.20;0.83;;;6.50;93.60;;;;;;5046288;28;20036;-79
2021/04/12 06:52:13;;;;;;;2.60;0.50;;;6.50;92.80;;;;;;5057027;28;20043;-81
2021/04/12 06:54:42;;;;;;;4.20;0.80;;;6.40;92.90;;;;;;5056531;28;20032;-83
2021/04/12 06:57:46;;;;;;;3.40;0.47;;;6.50;92.10;;;;;;5047968;28;20032;-82
2021/04/12 07:00:31;;;;;;;3.17;0.40;;;6.40;91.50;;;;;;5058269;28;20037;-82
2021/04/12 07:03:35;;;;;;;2.67;0.50;;;6.40;91.50;;;;;;5076600;28;20032;-82
2021/04/12 07:06:26;;;;;;;2.13;0.50;;;6.50;91.30;;;;;;5076843;28;20044;-82
2021/04/12 07:09:30;;;;;;;4.07;0.50;;;6.50;91.10;;;;;;5060437;28;20036;-83
2021/04/12 07:12:15;;;;;;;3.40;0.50;;;6.50;91.00;;;;;;5059328;28;20499;-80
2021/04/12 07:15:07;;;;;;;3.63;0.50;;;6.60;91.00;;;;;;5079692;28;20096;-80
2021/04/12 07:17:51;;;;;;;4.03;0.50;;;6.70;90.80;;;;;;5059027;28;20047;-81
2021/04/12 07:20:45;;;;;;;2.35;0.50;;;6.70;90.80;;;;;;5060431;28;20033;-82
2021/04/12 07:23:37;;;;;;;4.18;0.90;;;6.90;90.90;;;;;;5059184;28;20043;-80
2021/04/12 07:26:18;;;;;;;7.38;0.60;;;7.10;90.80;;;;;;5077205;28;20048;-82
2021/04/12 07:29:23;;;;;;;3.47;1.52;;;7.30;90.80;;;;;;5046644;28;20055;-82
2021/04/12 07:32:11;;;;;;;2.92;0.50;;;7.40;90.40;;;;;;5062421;28;20052;-82
2021/04/12 07:34:59;;;;;;;1.33;0.60;;;7.50;89.80;;;;;;5074738;28;20485;-83
2021/04/12 07:37:54;;;;;;;3.25;0.70;;;7.50;89.40;;;;;;5057813;28;20706;-83
2021/04/12 07:40:52;;;;;;;4.10;0.70;;;7.60;89.40;;;;;;5075859;28;20500;-82
2021/04/12 07:43:39;;;;;;;4.00;0.70;;;7.70;89.20;;;;;;5061804;28;20037;-83
2021/04/12 07:46:30;;;;;;;2.45;0.90;;;7.80;88.80;;;;;;5077488;28;20599;-82
2021/04/12 07:49:37;;;;;;;1.67;0.50;;;7.90;88.30;;;;;;5053859;28;20388;-82
2021/04/12 07:52:04;;;;;;;3.75;0.70;;;8.00;86.70;;;;;;5077454;28;20619;-82
2021/04/12 07:54:55;;;;;;;4.15;0.60;;;8.00;86.80;;;;;;5068393;28;20040;-82
2021/04/12 07:57:43;;;;;;;3.10;0.55;;;8.10;86.30;;;;;;5047347;28;20037;-83
2021/04/12 08:00:47;;;;;;;3.47;0.60;;;8.20;86.40;;;;;;5052849;28;20402;-82
2021/04/12 08:03:25;;;;;;;1.52;0.40;;;8.30;86.00;;;;;;5075799;28;20043;-83
2021/04/12 08:06:13;;;;;;;1.63;0.47;;;8.40;86.00;;;;;;5063588;28;20048;-82
2021/04/12 08:09:04;;;;;;;4.63;0.77;;;8.50;83.50;;;;;;5069126;28;20040;-81
2021/04/12 08:12:25;;;;;;;3.58;0.90;;;8.40;82.80;;;;;;5062514;28;20501;-83
2021/04/12 08:15:22;;;;;;;3.13;0.57;;;8.30;82.60;;;;;;4995814;28;20033;-83
2021/04/12 08:18:34;;;;;;;3.33;0.40;;;8.00;82.00;;;;;;5047211;28;20036;-83
2021/04/12 08:21:19;;;;;;;1.02;0.38;;;7.90;82.20;;;;;;5032387;28;20043;-83
2021/04/12 08:24:16;;;;;;;2.53;0.40;;;7.80;82.50;;;;;;5061568;28;20055;-83
2021/04/12 08:26:54;;;;;;;1.83;0.40;;;7.70;82.50;;;;;;5063313;28;20040;-83
2021/04/12 08:30:15;;;;;;;4.10;0.40;;;7.70;82.90;;;;;;5086318;28;20410;-84
2021/04/12 08:33:11;;;;;;;2.00;0.40;;;7.90;82.60;;;;;;5033416;28;20045;-83
2021/04/12 08:36:01;;;;;;;2.63;0.45;;;8.20;82.80;;;;;;5062966;28;20040;-84
2021/04/12 08:38:44;;;;;;;2.70;0.30;;;8.40;81.60;;;;;;5060694;28;20039;-83
2021/04/12 08:41:58;;;;;;;3.75;0.50;;;8.70;80.60;;;;;;5080733;28;20036;-84
2021/04/12 08:45:05;;;;;;;2.42;0.40;;;8.90;79.10;;;;;;5027675;28;20626;-83
2021/04/12 08:48:06;;;;;;;2.47;0.32;;;8.90;76.60;;;;;;5031954;28;20055;-83
2021/04/12 08:51:00;;;;;;;3.53;0.30;;;8.90;75.90;;;;;;5090992;28;20581;-84
2021/04/12 08:53:55;;;;;;;6.35;1.05;;;8.90;75.50;;;;;;5049742;28;20033;-83
2021/04/12 08:57:09;;;;;;;2.08;0.30;;;8.90;74.60;;;;;;5068619;28;20031;-84
2021/04/12 09:00:18;;;;;;;4.28;0.85;;;8.90;75.30;;;;;;5017246;28;20044;-83
2021/04/12 09:02:48;;;;;;;1.85;0.30;;;8.70;73.60;;;;;;5041792;28;20036;-83
2021/04/12 09:05:41;;;;;;;2.30;0.40;;;8.50;72.60;;;;;;5050119;28;20044;-83
2021/04/12 09:08:35;;;;;;;4.10;1.00;;;8.30;72.40;;;;;;5060150;28;20044;-83
2021/04/12 09:11:16;;;;;;;1.45;0.20;;;8.30;73.20;;;;;;5063026;28;20556;-84
2021/04/12 09:14:04;;;;;;;0.95;0.30;;;8.40;73.10;;;;;;5077075;28;20048;-83
2021/04/12 09:16:58;;;;;;;0.90;0.30;;;8.50;71.30;;;;;;5080491;28;20036;-84
2021/04/12 09:19:45;;;;;;;1.30;0.30;;;8.50;70.40;;;;;;5066353;28;20032;-83
2021/04/12 09:22:20;;;;;;;2.30;0.25;;;8.50;70.90;;;;;;5044948;28;20044;-83
2021/04/12 09:25:05;;;;;;;2.33;0.32;;;8.80;71.30;;;;;;5060488;28;20043;-84
2021/04/12 09:28:19;;;;;;;1.35;0.30;;;9.00;71.30;;;;;;5080051;28;20059;-83
2021/04/12 09:31:21;;;;;;;2.15;0.52;;;9.40;70.50;;;;;;5020413;28;20045;-84
2021/04/12 09:34:28;;;;;;;2.17;0.40;;;9.60;69.70;;;;;;4972410;28;20057;-86
2021/04/12 09:37:36;;;;;;;2.95;0.30;;;9.70;69.40;;;;;;5044079;28;20051;-84
2021/04/12 09:40:24;;;;;;;1.80;0.45;;;9.90;68.50;;;;;;5063222;28;20036;-84
2021/04/12 09:43:30;;;;;;;1.33;0.35;;;9.90;68.40;;;;;;5061340;28;20406;-84
2021/04/12 09:46:37;;;;;;;0.55;0.30;;;10.00;69.50;;;;;;5061820;28;20040;-85
2021/04/12 09:49:22;;;;;;;1.05;0.38;;;10.10;68.80;;;;;;5061039;28;20040;-85
2021/04/12 09:51:55;;;;;;;2.95;0.50;;;10.00;69.10;;;;;;5066252;28;20051;-82
2021/04/12 09:54:59;;;;;;;1.73;0.50;;;9.80;68.20;;;;;;5057479;28;20041;-82
2021/04/12 09:57:26;;;;;;;5.70;0.40;;;9.80;68.60;;;;;;5061553;28;20036;-84
2021/04/12 10:00:35;;;;;;;2.90;0.90;;;9.90;68.00;;;;;;5059761;28;20240;-84
2021/04/12 10:03:27;;;;;;;2.92;0.43;;;10.10;68.30;;;;;;4998689;28;20045;-84
2021/04/12 10:06:35;;;;;;;0.82;0.40;;;10.30;67.80;;;;;;5049333;28;20040;-84
2021/04/12 10:09:16;;;;;;;4.90;0.60;;;10.40;68.20;;;;;;5059959;28;20031;-78
2021/04/12 10:11:54;;;;;;;2.85;0.90;;;10.50;68.00;;;;;;5041373;28;20510;-81
2021/04/12 10:14:35;;;;;;;1.58;0.50;;;10.60;68.50;;;;;;5009427;28;20025;-86
2021/04/12 10:17:34;;;;;;;2.53;0.50;;;10.70;68.50;;;;;;5028625;28;20039;-84
2021/04/12 10:20:08;;;;;;;3.17;0.50;;;10.60;67.50;;;;;;5040761;28;20041;-83
2021/04/12 10:23:19;;;;;;;4.32;0.75;;;10.60;67.10;;;;;;5022335;28;20143;-81
2021/04/12 10:25:58;;;;;;;1.33;0.60;;;10.70;67.70;;;;;;4991857;28;20043;-81
2021/04/12 10:29:00;;;;;;;3.63;0.80;;;10.70;66.50;;;;;;5007086;28;20032;-82
2021/04/12 10:31:41;;;;;;;1.65;0.50;;;10.80;67.10;;;;;;5026579;28;20033;-84
2021/04/12 10:34:23;;;;;;;2.15;0.45;;;11.10;66.60;;;;;;5037314;28;20053;-85
2021/04/12 10:36:59;;;;;;;1.48;0.50;;;11.30;66.30;;;;;;5029690;28;20063;-84
2021/04/12 10:39:47;;;;;;;1.70;0.40;;;11.40;64.30;;;;;;5043820;28;20048;-84
2021/04/12 10:42:33;;;;;;;1.67;0.45;;;11.20;64.00;;;;;;5020119;28;20044;-84
2021/04/12 10:45:22;;;;;;;0.30;0.20;;;10.80;65.50;;;;;;5035176;28;20051;-84
2021/04/12 10:48:10;;;;;;;0.70;0.20;;;10.90;67.70;;;;;;5016781;28;20041;-85
2021/04/12 10:50:57;;;;;;;0.60;0.20;;;11.20;68.00;;;;;;5022769;28;20040;-83
2021/04/12 10:54:11;;;;;;;1.20;0.20;;;11.60;66.60;;;;;;5026158;28;20514;-84
2021/04/12 10:56:43;;;;;;;0.93;0.20;;;11.80;64.50;;;;;;5008317;28;20047;-83
2021/04/12 10:59:47;;;;;;;1.40;0.20;;;11.90;62.10;;;;;;5021000;28;20048;-82
2021/04/12 11:02:53;;;;;;;1.00;0.20;;;11.80;62.10;;;;;;5051486;28;20037;-83
2021/04/12 11:05:29;;;;;;;2.13;0.25;;;11.70;63.10;;;;;;5043095;28;20048;-81
2021/04/12 11:08:11;;;;;;;1.13;0.32;;;12.00;63.40;;;;;;5005201;28;20044;-81
2021/04/12 11:11:04;;;;;;;1.10;0.20;;;12.40;62.00;;;;;;5066113;28;20832;-82
2021/04/12 11:13:48;;;;;;;1.23;0.20;;;12.90;61.70;;;;;;5043245;28;20036;-82
2021/04/12 11:16:18;;;;;;;1.92;0.20;;;13.50;61.10;;;;;;5065748;28;20032;-82
2021/04/12 11:19:08;;;;;;;0.43;0.20;;;13.90;59.10;;;;;;5077331;28;20051;-82
2021/04/12 11:21:37;;;;;;;0.98;0.20;;;14.30;57.50;;;;;;5061206;28;20044;-78
2021/04/12 11:24:37;;;;;;;1.63;0.40;;;14.70;56.50;;;;;;5062055;28;20036;-80
2021/04/12 11:27:07;;;;;;;0.73;0.20;;;14.70;54.00;;;;;;5082770;28;20067;-80
2021/04/12 11:29:43;;;;;;;1.40;0.20;;;14.40;52.20;;;;;;5087538;28;20052;-80
2021/04/12 11:32:25;;;;;;;0.93;0.20;;;14.10;53.30;;;;;;5044432;28;20056;-79
2021/04/12 11:35:02;;;;;;;1.65;0.30;;;14.00;53.90;;;;;;5064177;28;20043;-79
2021/04/12 11:37:43;;;;;;;0.90;0.25;;;13.90;51.20;;;;;;5046917;28;20028;-80
2021/04/12 11:40:17;;;;;;;1.75;0.43;;;13.40;51.80;;;;;;5060146;28;20046;-77
2021/04/12 11:42:54;;;;;;;1.65;0.40;;;13.00;52.80;;;;;;5080638;28;20031;-79
2021/04/12 11:45:28;;;;;;;0.55;0.22;;;13.00;52.50;;;;;;5078813;28;20049;-79
2021/04/12 11:48:08;;;;;;;2.25;0.25;;;12.80;53.10;;;;;;5045622;28;20040;-79
2021/04/12 11:50:44;;;;;;;0.47;0.17;;;12.90;52.40;;;;;;5045069;28;20047;-80
2021/04/12 11:53:26;;;;;;;0.82;0.22;;;13.50;52.20;;;;;;5060782;28;20055;-78
2021/04/12 11:55:53;;;;;;;1.25;0.30;;;14.20;52.10;;;;;;5062593;28;20049;-77
2021/04/12 11:58:28;;;;;;;2.97;0.17;;;14.70;50.40;;;;;;5053277;28;20040;-77
2021/04/12 12:01:07;;;;;;;2.08;0.25;;;15.10;49.50;;;;;;5080320;28;20055;-78
2021/04/12 12:04:12;;;;;;;1.42;0.30;;;15.40;48.30;;;;;;5052020;28;20036;-78
2021/04/12 12:06:57;;;;;;;3.40;0.57;;;15.00;47.20;;;;;;5061570;28;20150;-78
2021/04/12 12:09:50;;;;;;;1.08;0.30;;;14.00;48.30;;;;;;5065525;28;20498;-79
2021/04/12 12:12:56;;;;;;;3.83;1.15;;;13.10;49.60;;;;;;5034625;28;20431;-77
2021/04/12 12:15:25;;;;;;;3.75;0.60;;;12.40;51.10;;;;;;5036205;28;20033;-77
2021/04/12 12:18:00;;;;;;;1.85;0.30;;;12.20;52.80;;;;;;5026553;28;20040;-76
2021/04/12 12:20:46;;;;;;;0.63;0.20;;;13.00;52.50;;;;;;5031494;28;20040;-77
2021/04/12 12:23:31;;;;;;;1.80;0.32;;;13.60;49.70;;;;;;5043892;28;20126;-76
2021/04/12 12:26:04;;;;;;;1.48;0.30;;;13.50;49.80;;;;;;5044255;28;20049;-77
2021/04/12 12:28:50;;;;;;;2.42;0.50;;;13.00;49.70;;;;;;5028157;28;20040;-77
2021/04/12 12:31:32;;;;;;;3.88;0.30;;;12.50;50.50;;;;;;5027193;28;20048;-77
2021/04/12 12:34:23;;;;;;;2.63;0.28;;;12.10;51.40;;;;;;5024592;28;20052;-77
2021/04/12 12:37:03;;;;;;;1.33;0.40;;;11.80;51.90;;;;;;5026689;28;20036;-79
2021/04/12 12:39:40;;;;;;;3.22;0.40;;;11.80;53.20;;;;;;5026813;28;20044;-79
2021/04/12 12:42:42;;;;;;;3.78;0.30;;;11.90;53.80;;;;;;5024214;28;22103;-79
2021/04/12 12:45:20;;;;;;;1.98;0.40;;;11.70;55.10;;;;;;5048828;28;20040;-79
2021/04/12 12:47:51;;;;;;;1.95;0.50;;;11.10;56.80;;;;;;5063169;28;20044;-79
2021/04/12 12:50:32;;;;;;;1.52;0.75;;;10.50;59.80;;;;;;5018030;28;20474;-79
2021/04/12 12:53:06;;;;;;;2.17;0.30;;;10.00;61.80;;;;;;5028225;28;20378;-79
2021/04/12 12:55:57;;;;;;;1.85;0.28;;;9.40;64.50;;;;;;5028191;28;20024;-79
2021/04/12 12:58:28;;;;;;;0.95;0.30;;;8.60;66.80;;;;;;5034263;28;20055;-79
2021/04/12 13:00:58;;;;;;;1.52;0.20;;;8.00;69.50;;;;;;5031001;28;20037;-80
2021/04/12 13:03:35;;;;;;;1.60;0.40;;;7.50;71.30;;;;;;5043535;28;20044;-79
2021/04/12 13:06:19;;;;;;;0.95;0.20;;;7.10;74.10;;;;;;5014709;28;20348;-82
2021/04/12 13:08:58;;;;;;;0.93;0.30;;;7.10;76.20;;;;;;5059663;28;20044;-80
2021/04/12 13:11:42;;;;;;;2.95;0.40;;;7.10;76.60;;;;;;5073357;28;20059;-83
2021/04/12 13:14:26;;;;;;;1.50;0.40;;;7.10;77.90;;;;;;5064651;28;20035;-79
2021/04/12 13:17:00;;;;;;;2.38;0.40;;;7.10;78.20;;;;;;5061393;28;20047;-80
2021/04/12 13:19:50;;;;;;;1.52;0.30;;;7.30;78.70;;;;;;5058455;28;20050;-80
2021/04/12 13:22:22;;;;;;;2.13;0.50;;;7.80;80.10;;;;;;5062458;28;20040;-80
2021/04/12 13:24:49;;;;;;;1.52;0.45;;;8.80;79.30;;;;;;5063630;28;20043;-79
2021/04/12 13:27:22;;;;;;;2.15;0.40;;;9.70;77.20;;;;;;5059870;28;20059;-79
2021/04/12 13:29:57;;;;;;;3.22;0.50;;;10.10;72.40;;;;;;5045862;28;20036;-80
2021/04/12 13:32:28;;;;;;;1.52;0.40;;;10.00;71.60;;;;;;5057848;28;20040;-80
2021/04/12 13:35:17;;;;;;;2.40;0.30;;;9.80;72.40;;;;;;5062953;28;20055;-80
2021/04/12 13:37:58;;;;;;;1.30;0.30;;;9.70;72.20;;;;;;5083711;28;20044;-80
2021/04/12 13:40:38;;;;;;;3.00;0.40;;;9.60;71.80;;;;;;5081233;28;20158;-79
2021/04/12 13:43:07;;;;;;;2.30;0.30;;;9.50;71.70;;;;;;5041933;28;20036;-79
2021/04/12 13:45:42;;;;;;;1.52;0.38;;;9.40;71.00;;;;;;5077540;28;20070;-80
2021/04/12 13:48:17;;;;;;;2.75;0.40;;;9.40;71.50;;;;;;5046763;28;20497;-79
2021/04/12 13:50:59;;;;;;;3.00;0.30;;;9.50;71.60;;;;;;5070828;28;20067;-80
2021/04/12 13:53:51;;;;;;;1.27;0.40;;;9.90;71.60;;;;;;5082930;28;20044;-80
2021/04/12 13:56:20;;;;;;;3.75;1.17;;;10.40;69.70;;;;;;5055971;28;20028;-79
2021/04/12 13:59:04;;;;;;;2.63;0.45;;;10.50;68.30;;;;;;5045444;28;20035;-83
2021/04/12 14:01:44;;;;;;;1.73;0.40;;;10.60;68.00;;;;;;5062661;28;20149;-83
2021/04/12 14:04:20;;;;;;;2.47;0.45;;;10.90;67.10;;;;;;5041188;28;20036;-80
2021/04/12 14:07:15;;;;;;;2.15;0.40;;;11.90;66.80;;;;;;5042134;28;20039;-83
2021/04/12 14:09:45;;;;;;;3.03;0.98;;;13.20;63.30;;;;;;5079810;28;20056;-85
2021/04/12 14:12:18;;;;;;;2.28;0.50;;;14.60;60.70;;;;;;5049587;28;20056;-86
2021/04/12 14:15:04;;;;;;;3.25;0.40;;;16.00;57.40;;;;;;5046378;28;20040;-84
2021/04/12 14:17:37;;;;;;;2.72;0.40;;;17.20;53.30;;;;;;5048336;28;20032;-84
2021/04/12 14:20:29;;;;;;;1.58;0.47;;;18.10;50.90;;;;;;5041077;28;20507;-86
2021/04/12 14:23:00;;;;;;;2.42;0.43;;;19.20;47.30;;;;;;5078180;28;20044;-86
2021/04/12 14:25:42;;;;;;;2.97;0.87;;;19.70;44.50;;;;;;5061156;28;20037;-86
2021/04/12 14:28:23;;;;;;;1.53;0.50;;;20.40;43.70;;;;;;5047390;28;20035;-88
2021/04/12 14:31:04;;;;;;;2.47;0.50;;;20.80;40.30;;;;;;5045660;28;20052;-85
2021/04/12 14:33:34;;;;;;;2.50;0.30;;;20.60;40.10;;;;;;5046103;28;20399;-83
2021/04/12 14:36:07;;;;;;;2.40;0.40;;;20.00;39.00;;;;;;5058984;28;20040;-79
2021/04/12 14:38:39;;;;;;;1.45;0.30;;;19.10;40.20;;;;;;5061855;28;20409;-80
2021/04/12 14:41:09;;;;;;;;;;;17.90;41.10;;;;;;5061834;28;20028;-81
2021/04/12 14:43:53;;;;;;;2.50;0.38;;;16.80;42.40;;;;;;5077013;28;19919;-80